sensor_id;sensor_type;location;lat;lon;timestamp;pressure;altitude;pressure_sealevel;temperature;humidity
59264;BME280;45030;42.720;23.344;2023-12-14T00:00:07;94381.53;;;3.73;100.00
59264;BME280;45030;42.720;23.344;2023-12-14T00:02:33;94397.44;;;3.78;100.00
59264;BME280;45030;42.720;23.344;2023-12-14T00:05:00;94383.13;;;3.58;100.00
59264;BME280;45030;42.720;23.344;2023-12-14T00:07:25;94395.34;;;3.82;100.00
59264;BME280;45030;42.720;23.344;2023-12-14T00:09:50;94395.03;;;3.76;100.00
59264;BME280;45030;42.720;23.344;2023-12-14T00:12:16;94377.28;;;3.55;100.00
59264;BME280;45030;42.720;23.344;2023-12-14T00:14:41;94382.31;;;3.57;100.00
59264;BME280;45030;42.720;23.344;2023-12-14T00:17:07;94381.47;;;3.56;100.00
59264;BME280;45030;42.720;23.344;2023-12-14T00:19:32;94376.31;;;3.73;100.00
59264;BME280;45030;42.720;23.344;2023-12-14T00:21:57;94391.34;;;3.36;100.00
59264;BME280;45030;42.720;23.344;2023-12-14T00:24:24;94370.75;;;3.43;100.00
59264;BME280;45030;42.720;23.344;2023-12-14T00:26:50;94391.22;;;3.46;100.00
59264;BME280;45030;42.720;23.344;2023-12-14T00:29:15;94409.41;;;3.38;100.00
59264;BME280;45030;42.720;23.344;2023-12-14T00:31:40;94394.91;;;3.27;100.00
59264;BME280;45030;42.720;23.344;2023-12-14T00:34:06;94381.44;;;3.32;100.00
59264;BME280;45030;42.720;23.344;2023-12-14T00:36:31;94373.97;;;3.37;100.00
59264;BME280;45030;42.720;23.344;2023-12-14T00:38:58;94390.38;;;3.29;100.00
59264;BME280;45030;42.720;23.344;2023-12-14T00:41:24;94399.16;;;3.36;100.00
59264;BME280;45030;42.720;23.344;2023-12-14T00:43:49;94387.47;;;3.49;100.00
59264;BME280;45030;42.720;23.344;2023-12-14T00:46:15;94388.75;;;3.36;100.00
59264;BME280;45030;42.720;23.344;2023-12-14T00:48:40;94388.72;;;3.20;100.00
59264;BME280;45030;42.720;23.344;2023-12-14T00:51:06;94380.72;;;3.13;100.00
59264;BME280;45030;42.720;23.344;2023-12-14T00:53:31;94393.94;;;3.28;100.00
59264;BME280;45030;42.720;23.344;2023-12-14T00:55:56;94372.50;;;3.26;100.00
59264;BME280;45030;42.720;23.344;2023-12-14T00:58:22;94382.41;;;3.39;100.00
59264;BME280;45030;42.720;23.344;2023-12-14T01:03:22;94392.34;;;3.35;100.00
59264;BME280;45030;42.720;23.344;2023-12-14T01:05:48;94390.84;;;3.33;100.00
59264;BME280;45030;42.720;23.344;2023-12-14T01:08:13;94382.09;;;3.34;100.00
59264;BME280;45030;42.720;23.344;2023-12-14T01:10:40;94393.31;;;3.43;100.00
59264;BME280;45030;42.720;23.344;2023-12-14T01:13:05;94385.22;;;3.46;100.00
59264;BME280;45030;42.720;23.344;2023-12-14T01:15:30;94372.38;;;3.44;100.00
59264;BME280;45030;42.720;23.344;2023-12-14T01:17:56;94393.00;;;3.38;100.00
59264;BME280;45030;42.720;23.344;2023-12-14T01:20:21;94374.63;;;3.39;100.00
59264;BME280;45030;42.720;23.344;2023-12-14T01:22:47;94385.19;;;3.38;100.00
59264;BME280;45030;42.720;23.344;2023-12-14T01:25:12;94388.59;;;3.30;100.00
59264;BME280;45030;42.720;23.344;2023-12-14T01:27:37;94363.88;;;3.26;100.00
59264;BME280;45030;42.720;23.344;2023-12-14T01:30:03;94371.03;;;3.32;100.00
59264;BME280;45030;42.720;23.344;2023-12-14T01:32:28;94362.97;;;2.92;100.00
59264;BME280;45030;42.720;23.344;2023-12-14T01:34:54;94383.28;;;2.97;100.00
59264;BME280;45030;42.720;23.344;2023-12-14T01:37:19;94367.31;;;2.92;100.00
59264;BME280;45030;42.720;23.344;2023-12-14T01:39:44;94372.91;;;3.05;100.00
59264;BME280;45030;42.720;23.344;2023-12-14T01:42:12;94370.91;;;2.91;100.00
59264;BME280;45030;42.720;23.344;2023-12-14T01:44:37;94378.63;;;2.74;100.00
59264;BME280;45030;42.720;23.344;2023-12-14T01:47:03;94379.59;;;2.73;100.00
59264;BME280;45030;42.720;23.344;2023-12-14T01:49:28;94365.03;;;2.81;100.00
59264;BME280;45030;42.720;23.344;2023-12-14T01:51:54;94375.59;;;2.87;100.00
59264;BME280;45030;42.720;23.344;2023-12-14T01:54:19;94390.38;;;2.87;100.00
59264;BME280;45030;42.720;23.344;2023-12-14T01:56:45;94379.88;;;2.70;100.00
59264;BME280;45030;42.720;23.344;2023-12-14T01:59:11;94373.16;;;2.86;100.00
59264;BME280;45030;42.720;23.344;2023-12-14T02:01:45;94380.16;;;2.93;100.00
59264;BME280;45030;42.720;23.344;2023-12-14T02:04:12;94363.91;;;2.91;100.00
59264;BME280;45030;42.720;23.344;2023-12-14T02:06:39;94370.00;;;2.74;100.00
59264;BME280;45030;42.720;23.344;2023-12-14T02:09:05;94371.44;;;2.68;100.00
59264;BME280;45030;42.720;23.344;2023-12-14T02:11:31;94365.81;;;2.73;100.00
59264;BME280;45030;42.720;23.344;2023-12-14T02:13:56;94369.81;;;2.67;100.00
59264;BME280;45030;42.720;23.344;2023-12-14T02:16:21;94376.03;;;2.48;100.00
59264;BME280;45030;42.720;23.344;2023-12-14T02:18:47;94366.22;;;2.34;100.00
59264;BME280;45030;42.720;23.344;2023-12-14T02:21:12;94361.09;;;2.42;100.00
59264;BME280;45030;42.720;23.344;2023-12-14T02:23:44;94347.59;;;2.38;100.00
59264;BME280;45030;42.720;23.344;2023-12-14T02:26:13;94361.69;;;2.36;100.00
59264;BME280;45030;42.720;23.344;2023-12-14T02:28:39;94361.03;;;2.34;100.00
59264;BME280;45030;42.720;23.344;2023-12-14T02:31:05;94350.75;;;2.24;100.00
59264;BME280;45030;42.720;23.344;2023-12-14T02:33:30;94355.91;;;2.16;100.00
59264;BME280;45030;42.720;23.344;2023-12-14T02:35:56;94349.44;;;2.20;100.00
59264;BME280;45030;42.720;23.344;2023-12-14T02:38:21;94347.03;;;2.27;100.00
59264;BME280;45030;42.720;23.344;2023-12-14T02:40:47;94352.03;;;2.20;100.00
59264;BME280;45030;42.720;23.344;2023-12-14T02:43:12;94344.50;;;2.09;100.00
59264;BME280;45030;42.720;23.344;2023-12-14T02:45:38;94349.13;;;1.97;100.00
59264;BME280;45030;42.720;23.344;2023-12-14T02:48:05;94349.19;;;1.87;100.00
59264;BME280;45030;42.720;23.344;2023-12-14T02:50:30;94365.75;;;1.86;100.00
59264;BME280;45030;42.720;23.344;2023-12-14T02:52:56;94365.44;;;1.71;100.00
59264;BME280;45030;42.720;23.344;2023-12-14T02:55:21;94368.56;;;1.75;100.00
59264;BME280;45030;42.720;23.344;2023-12-14T02:57:46;94336.56;;;1.48;100.00
59264;BME280;45030;42.720;23.344;2023-12-14T03:00:12;94353.59;;;1.69;100.00
59264;BME280;45030;42.720;23.344;2023-12-14T03:02:38;94371.16;;;1.75;100.00
59264;BME280;45030;42.720;23.344;2023-12-14T03:05:03;94352.84;;;1.58;100.00
59264;BME280;45030;42.720;23.344;2023-12-14T03:07:29;94365.13;;;1.74;100.00
59264;BME280;45030;42.720;23.344;2023-12-14T03:09:54;94371.75;;;1.87;100.00
59264;BME280;45030;42.720;23.344;2023-12-14T03:12:19;94322.50;;;1.69;100.00
59264;BME280;45030;42.720;23.344;2023-12-14T03:14:45;94367.41;;;1.95;100.00
59264;BME280;45030;42.720;23.344;2023-12-14T03:17:10;94332.69;;;2.14;100.00
59264;BME280;45030;42.720;23.344;2023-12-14T03:19:42;94349.50;;;2.28;100.00
59264;BME280;45030;42.720;23.344;2023-12-14T03:22:08;94347.97;;;2.44;100.00
59264;BME280;45030;42.720;23.344;2023-12-14T03:24:34;94335.16;;;2.50;100.00
59264;BME280;45030;42.720;23.344;2023-12-14T03:27:00;94342.44;;;2.47;100.00
59264;BME280;45030;42.720;23.344;2023-12-14T03:29:27;94317.31;;;2.47;100.00
59264;BME280;45030;42.720;23.344;2023-12-14T03:31:52;94335.75;;;2.70;100.00
59264;BME280;45030;42.720;23.344;2023-12-14T03:34:18;94323.75;;;2.69;100.00
59264;BME280;45030;42.720;23.344;2023-12-14T03:36:43;94318.56;;;2.77;100.00
59264;BME280;45030;42.720;23.344;2023-12-14T03:39:09;94329.13;;;2.84;100.00
59264;BME280;45030;42.720;23.344;2023-12-14T03:41:35;94304.16;;;2.91;100.00
59264;BME280;45030;42.720;23.344;2023-12-14T03:44:00;94323.50;;;2.89;100.00
59264;BME280;45030;42.720;23.344;2023-12-14T03:46:26;94309.53;;;2.90;100.00
59264;BME280;45030;42.720;23.344;2023-12-14T03:48:51;94320.09;;;2.96;100.00
59264;BME280;45030;42.720;23.344;2023-12-14T03:51:20;94301.13;;;3.04;100.00
59264;BME280;45030;42.720;23.344;2023-12-14T03:53:45;94306.34;;;3.04;100.00
59264;BME280;45030;42.720;23.344;2023-12-14T03:56:11;94314.78;;;3.14;100.00
59264;BME280;45030;42.720;23.344;2023-12-14T03:58:36;94300.00;;;3.15;100.00
59264;BME280;45030;42.720;23.344;2023-12-14T04:01:02;94313.28;;;3.04;100.00
59264;BME280;45030;42.720;23.344;2023-12-14T04:03:27;94320.00;;;3.14;100.00
59264;BME280;45030;42.720;23.344;2023-12-14T04:05:53;94310.31;;;2.82;100.00
59264;BME280;45030;42.720;23.344;2023-12-14T04:08:18;94325.19;;;2.72;100.00
59264;BME280;45030;42.720;23.344;2023-12-14T04:10:43;94348.03;;;2.60;100.00
59264;BME280;45030;42.720;23.344;2023-12-14T04:13:09;94328.31;;;2.41;100.00
59264;BME280;45030;42.720;23.344;2023-12-14T04:15:34;94325.75;;;2.23;100.00
59264;BME280;45030;42.720;23.344;2023-12-14T04:18:00;94332.69;;;2.14;100.00
59264;BME280;45030;42.720;23.344;2023-12-14T04:20:25;94334.31;;;1.89;100.00
59264;BME280;45030;42.720;23.344;2023-12-14T04:22:50;94341.00;;;1.74;100.00
59264;BME280;45030;42.720;23.344;2023-12-14T04:25:16;94337.88;;;1.70;100.00
59264;BME280;45030;42.720;23.344;2023-12-14T04:27:41;94341.22;;;1.63;100.00
59264;BME280;45030;42.720;23.344;2023-12-14T04:30:07;94326.06;;;1.50;100.00
59264;BME280;45030;42.720;23.344;2023-12-14T04:32:36;94311.69;;;1.37;100.00
59264;BME280;45030;42.720;23.344;2023-12-14T04:35:01;94319.81;;;1.07;100.00
59264;BME280;45030;42.720;23.344;2023-12-14T04:37:27;94325.69;;;1.27;100.00
59264;BME280;45030;42.720;23.344;2023-12-14T04:39:52;94327.72;;;1.05;100.00
59264;BME280;45030;42.720;23.344;2023-12-14T04:42:18;94327.84;;;1.31;100.00
59264;BME280;45030;42.720;23.344;2023-12-14T04:44:43;94326.25;;;1.21;100.00
59264;BME280;45030;42.720;23.344;2023-12-14T04:47:08;94327.59;;;1.25;100.00
59264;BME280;45030;42.720;23.344;2023-12-14T04:49:34;94330.94;;;1.35;100.00
59264;BME280;45030;42.720;23.344;2023-12-14T04:51:59;94342.66;;;1.57;100.00
59264;BME280;45030;42.720;23.344;2023-12-14T04:54:24;94349.38;;;1.50;100.00
59264;BME280;45030;42.720;23.344;2023-12-14T04:56:50;94341.47;;;1.51;100.00
59264;BME280;45030;42.720;23.344;2023-12-14T04:59:15;94352.28;;;1.65;100.00
59264;BME280;45030;42.720;23.344;2023-12-14T05:01:41;94339.22;;;1.56;100.00
59264;BME280;45030;42.720;23.344;2023-12-14T05:04:06;94346.25;;;1.64;100.00
59264;BME280;45030;42.720;23.344;2023-12-14T05:06:32;94346.34;;;1.54;100.00
59264;BME280;45030;42.720;23.344;2023-12-14T05:08:59;94333.81;;;1.68;100.00
59264;BME280;45030;42.720;23.344;2023-12-14T05:11:26;94314.44;;;1.80;100.00
59264;BME280;45030;42.720;23.344;2023-12-14T05:13:51;94334.19;;;1.73;100.00
59264;BME280;45030;42.720;23.344;2023-12-14T05:16:17;94316.56;;;1.58;100.00
59264;BME280;45030;42.720;23.344;2023-12-14T05:18:42;94336.59;;;1.92;100.00
59264;BME280;45030;42.720;23.344;2023-12-14T05:21:07;94323.94;;;1.89;100.00
59264;BME280;45030;42.720;23.344;2023-12-14T05:23:33;94336.38;;;1.86;100.00
59264;BME280;45030;42.720;23.344;2023-12-14T05:25:58;94351.06;;;1.77;100.00
59264;BME280;45030;42.720;23.344;2023-12-14T05:28:24;94332.31;;;1.83;100.00
59264;BME280;45030;42.720;23.344;2023-12-14T05:30:49;94347.28;;;1.89;100.00
59264;BME280;45030;42.720;23.344;2023-12-14T05:33:15;94353.28;;;1.72;100.00
59264;BME280;45030;42.720;23.344;2023-12-14T05:35:40;94311.66;;;1.73;100.00
59264;BME280;45030;42.720;23.344;2023-12-14T05:38:06;94345.34;;;1.91;100.00
59264;BME280;45030;42.720;23.344;2023-12-14T05:40:31;94368.25;;;1.78;100.00
59264;BME280;45030;42.720;23.344;2023-12-14T05:42:57;94368.25;;;1.78;100.00
59264;BME280;45030;42.720;23.344;2023-12-14T05:45:22;94351.78;;;1.87;100.00
59264;BME280;45030;42.720;23.344;2023-12-14T05:47:48;94364.84;;;1.60;100.00
59264;BME280;45030;42.720;23.344;2023-12-14T05:50:14;94365.81;;;1.58;100.00
59264;BME280;45030;42.720;23.344;2023-12-14T05:52:39;94336.94;;;1.71;100.00
59264;BME280;45030;42.720;23.344;2023-12-14T05:55:08;94371.94;;;1.93;100.00
59264;BME280;45030;42.720;23.344;2023-12-14T05:57:35;94347.72;;;1.85;100.00
59264;BME280;45030;42.720;23.344;2023-12-14T06:00:01;94363.47;;;1.65;100.00
59264;BME280;45030;42.720;23.344;2023-12-14T06:02:28;94365.56;;;1.88;100.00
59264;BME280;45030;42.720;23.344;2023-12-14T06:04:54;94336.94;;;1.71;100.00
59264;BME280;45030;42.720;23.344;2023-12-14T06:07:21;94355.38;;;1.86;100.00
59264;BME280;45030;42.720;23.344;2023-12-14T06:09:47;94366.38;;;2.06;100.00
59264;BME280;45030;42.720;23.344;2023-12-14T06:12:12;94369.06;;;2.23;100.00
59264;BME280;45030;42.720;23.344;2023-12-14T06:14:39;94361.84;;;2.08;100.00
59264;BME280;45030;42.720;23.344;2023-12-14T06:17:04;94365.31;;;2.17;100.00
59264;BME280;45030;42.720;23.344;2023-12-14T06:19:29;94368.94;;;2.24;100.00
59264;BME280;45030;42.720;23.344;2023-12-14T06:21:55;94370.22;;;2.54;100.00
59264;BME280;45030;42.720;23.344;2023-12-14T06:24:20;94398.66;;;2.56;100.00
59264;BME280;45030;42.720;23.344;2023-12-14T06:26:47;94385.03;;;2.62;100.00
59264;BME280;45030;42.720;23.344;2023-12-14T06:29:13;94372.50;;;2.49;100.00
59264;BME280;45030;42.720;23.344;2023-12-14T06:31:38;94410.47;;;2.76;100.00
59264;BME280;45030;42.720;23.344;2023-12-14T06:34:05;94395.22;;;2.82;100.00
59264;BME280;45030;42.720;23.344;2023-12-14T06:36:30;94385.44;;;2.75;100.00
59264;BME280;45030;42.720;23.344;2023-12-14T06:38:57;94406.41;;;2.82;100.00
59264;BME280;45030;42.720;23.344;2023-12-14T06:41:24;94400.44;;;2.90;100.00
59264;BME280;45030;42.720;23.344;2023-12-14T06:43:50;94405.84;;;2.96;100.00
59264;BME280;45030;42.720;23.344;2023-12-14T06:46:15;94393.66;;;2.97;100.00
59264;BME280;45030;42.720;23.344;2023-12-14T06:48:41;94396.00;;;3.08;100.00
59264;BME280;45030;42.720;23.344;2023-12-14T06:51:07;94398.59;;;3.08;100.00
59264;BME280;45030;42.720;23.344;2023-12-14T06:53:34;94397.25;;;2.70;100.00
59264;BME280;45030;42.720;23.344;2023-12-14T06:55:59;94397.41;;;2.68;100.00
59264;BME280;45030;42.720;23.344;2023-12-14T06:58:26;94419.94;;;2.33;100.00
59264;BME280;45030;42.720;23.344;2023-12-14T07:00:53;94396.19;;;2.54;100.00
59264;BME280;45030;42.720;23.344;2023-12-14T07:03:19;94391.44;;;2.76;100.00
59264;BME280;45030;42.720;23.344;2023-12-14T07:05:44;94396.22;;;2.89;100.00
59264;BME280;45030;42.720;23.344;2023-12-14T07:08:09;94408.72;;;3.28;100.00
59264;BME280;45030;42.720;23.344;2023-12-14T07:10:35;94421.31;;;3.06;100.00
59264;BME280;45030;42.720;23.344;2023-12-14T07:13:00;94399.13;;;3.28;100.00
59264;BME280;45030;42.720;23.344;2023-12-14T07:15:26;94409.13;;;3.49;100.00
59264;BME280;45030;42.720;23.344;2023-12-14T07:17:51;94435.25;;;3.40;100.00
59264;BME280;45030;42.720;23.344;2023-12-14T07:20:16;94432.41;;;3.84;100.00
59264;BME280;45030;42.720;23.344;2023-12-14T07:22:42;94426.03;;;3.62;100.00
59264;BME280;45030;42.720;23.344;2023-12-14T07:25:08;94451.13;;;3.87;100.00
59264;BME280;45030;42.720;23.344;2023-12-14T07:27:33;94411.16;;;3.96;100.00
59264;BME280;45030;42.720;23.344;2023-12-14T07:29:59;94451.84;;;4.14;100.00
59264;BME280;45030;42.720;23.344;2023-12-14T07:32:24;94416.31;;;3.80;100.00
59264;BME280;45030;42.720;23.344;2023-12-14T07:34:50;94438.00;;;4.30;100.00
59264;BME280;45030;42.720;23.344;2023-12-14T07:37:15;94421.50;;;4.70;100.00
59264;BME280;45030;42.720;23.344;2023-12-14T07:39:41;94417.44;;;4.84;100.00
59264;BME280;45030;42.720;23.344;2023-12-14T07:42:06;94432.22;;;5.00;100.00
59264;BME280;45030;42.720;23.344;2023-12-14T07:44:32;94426.25;;;5.23;100.00
59264;BME280;45030;42.720;23.344;2023-12-14T07:46:59;94428.56;;;5.57;100.00
59264;BME280;45030;42.720;23.344;2023-12-14T07:49:25;94445.88;;;5.81;100.00
59264;BME280;45030;42.720;23.344;2023-12-14T07:51:51;94445.56;;;5.84;100.00
59264;BME280;45030;42.720;23.344;2023-12-14T07:54:17;94453.38;;;5.45;100.00
59264;BME280;45030;42.720;23.344;2023-12-14T07:56:42;94452.84;;;5.97;100.00
59264;BME280;45030;42.720;23.344;2023-12-14T07:59:07;94435.13;;;5.84;100.00
59264;BME280;45030;42.720;23.344;2023-12-14T08:01:34;94423.22;;;6.51;100.00
59264;BME280;45030;42.720;23.344;2023-12-14T08:04:01;94446.44;;;6.46;100.00
59264;BME280;45030;42.720;23.344;2023-12-14T08:06:27;94429.28;;;6.05;100.00
59264;BME280;45030;42.720;23.344;2023-12-14T08:08:52;94419.66;;;6.67;100.00
59264;BME280;45030;42.720;23.344;2023-12-14T08:11:18;94449.44;;;6.81;100.00
59264;BME280;45030;42.720;23.344;2023-12-14T08:13:49;94431.94;;;6.81;100.00
59264;BME280;45030;42.720;23.344;2023-12-14T08:16:16;94433.03;;;7.17;100.00
59264;BME280;45030;42.720;23.344;2023-12-14T08:18:46;94452.13;;;7.62;100.00
59264;BME280;45030;42.720;23.344;2023-12-14T08:21:12;94442.38;;;7.70;100.00
59264;BME280;45030;42.720;23.344;2023-12-14T08:23:37;94433.56;;;8.15;100.00
59264;BME280;45030;42.720;23.344;2023-12-14T08:26:03;94426.16;;;8.18;100.00
59264;BME280;45030;42.720;23.344;2023-12-14T08:28:28;94452.13;;;8.56;100.00
59264;BME280;45030;42.720;23.344;2023-12-14T08:30:54;94462.47;;;8.86;100.00
59264;BME280;45030;42.720;23.344;2023-12-14T08:33:22;94444.63;;;9.03;100.00
59264;BME280;45030;42.720;23.344;2023-12-14T08:35:48;94433.56;;;8.51;100.00
59264;BME280;45030;42.720;23.344;2023-12-14T08:38:14;94437.75;;;8.74;100.00
59264;BME280;45030;42.720;23.344;2023-12-14T08:40:40;94458.22;;;8.20;100.00
59264;BME280;45030;42.720;23.344;2023-12-14T08:43:05;94431.13;;;8.78;100.00
59264;BME280;45030;42.720;23.344;2023-12-14T08:45:32;94432.31;;;9.32;100.00
59264;BME280;45030;42.720;23.344;2023-12-14T08:47:57;94437.47;;;9.18;100.00
59264;BME280;45030;42.720;23.344;2023-12-14T08:50:23;94430.75;;;9.50;100.00
59264;BME280;45030;42.720;23.344;2023-12-14T08:52:51;94417.81;;;9.97;100.00
59264;BME280;45030;42.720;23.344;2023-12-14T08:55:16;94442.19;;;10.46;100.00
59264;BME280;45030;42.720;23.344;2023-12-14T08:57:43;94459.09;;;10.10;100.00
59264;BME280;45030;42.720;23.344;2023-12-14T09:00:08;94441.81;;;10.49;99.48
59264;BME280;45030;42.720;23.344;2023-12-14T09:02:35;94444.66;;;10.94;97.20
59264;BME280;45030;42.720;23.344;2023-12-14T09:05:00;94438.56;;;11.20;94.50
59264;BME280;45030;42.720;23.344;2023-12-14T09:07:26;94450.66;;;11.35;92.16
59264;BME280;45030;42.720;23.344;2023-12-14T09:09:51;94455.00;;;11.94;89.96
59264;BME280;45030;42.720;23.344;2023-12-14T09:12:17;94447.22;;;12.06;85.84
59264;BME280;45030;42.720;23.344;2023-12-14T09:14:42;94429.31;;;12.21;84.49
59264;BME280;45030;42.720;23.344;2023-12-14T09:17:07;94430.38;;;12.07;83.62
59264;BME280;45030;42.720;23.344;2023-12-14T09:19:33;94420.56;;;11.82;85.05
59264;BME280;45030;42.720;23.344;2023-12-14T09:21:58;94414.53;;;11.68;84.53
59264;BME280;45030;42.720;23.344;2023-12-14T09:24:24;94426.41;;;11.84;83.01
59264;BME280;45030;42.720;23.344;2023-12-14T09:26:49;94422.66;;;12.12;82.04
59264;BME280;45030;42.720;23.344;2023-12-14T09:29:15;94424.66;;;12.17;82.71
59264;BME280;45030;42.720;23.344;2023-12-14T09:31:45;94440.75;;;11.43;84.64
59264;BME280;45030;42.720;23.344;2023-12-14T09:34:11;94447.00;;;11.42;86.21
59264;BME280;45030;42.720;23.344;2023-12-14T09:36:38;94450.78;;;11.73;85.40
59264;BME280;45030;42.720;23.344;2023-12-14T09:39:03;94453.91;;;11.43;91.06
59264;BME280;45030;42.720;23.344;2023-12-14T09:41:29;94449.09;;;11.00;91.05
59264;BME280;45030;42.720;23.344;2023-12-14T09:43:55;94449.09;;;10.94;89.96
59264;BME280;45030;42.720;23.344;2023-12-14T09:46:21;94434.91;;;10.48;92.52
59264;BME280;45030;42.720;23.344;2023-12-14T09:48:50;94443.44;;;10.70;94.55
59264;BME280;45030;42.720;23.344;2023-12-14T09:51:16;94427.63;;;11.17;89.55
59264;BME280;45030;42.720;23.344;2023-12-14T09:53:41;94459.16;;;11.37;89.79
59264;BME280;45030;42.720;23.344;2023-12-14T09:56:07;94470.63;;;11.82;85.45
59264;BME280;45030;42.720;23.344;2023-12-14T09:58:32;94466.69;;;12.05;81.15
59264;BME280;45030;42.720;23.344;2023-12-14T10:00:58;94473.75;;;12.11;81.70
59264;BME280;45030;42.720;23.344;2023-12-14T10:03:27;94459.63;;;12.05;82.36
59264;BME280;45030;42.720;23.344;2023-12-14T10:05:58;94464.88;;;12.44;79.49
59264;BME280;45030;42.720;23.344;2023-12-14T10:08:25;94459.44;;;12.39;78.44
59264;BME280;45030;42.720;23.344;2023-12-14T10:10:54;94460.75;;;12.55;76.54
59264;BME280;45030;42.720;23.344;2023-12-14T10:13:23;94457.06;;;12.24;78.26
59264;BME280;45030;42.720;23.344;2023-12-14T10:16:00;94442.44;;;12.28;77.99
59264;BME280;45030;42.720;23.344;2023-12-14T10:18:31;94461.97;;;12.52;77.32
59264;BME280;45030;42.720;23.344;2023-12-14T10:20:59;94457.88;;;12.56;76.37
59264;BME280;45030;42.720;23.344;2023-12-14T10:23:27;94462.31;;;12.31;77.38
59264;BME280;45030;42.720;23.344;2023-12-14T10:25:53;94449.22;;;12.11;78.83
59264;BME280;45030;42.720;23.344;2023-12-14T10:28:18;94441.19;;;11.99;78.55
59264;BME280;45030;42.720;23.344;2023-12-14T10:30:45;94457.34;;;11.44;82.30
59264;BME280;45030;42.720;23.344;2023-12-14T10:33:11;94453.94;;;11.30;83.49
59264;BME280;45030;42.720;23.344;2023-12-14T10:35:36;94452.53;;;10.67;87.31
59264;BME280;45030;42.720;23.344;2023-12-14T10:38:03;94471.59;;;10.76;89.32
59264;BME280;45030;42.720;23.344;2023-12-14T10:40:31;94477.78;;;10.35;93.41
59264;BME280;45030;42.720;23.344;2023-12-14T10:42:59;94478.44;;;10.77;92.42
59264;BME280;45030;42.720;23.344;2023-12-14T10:45:34;94475.81;;;10.97;90.67
59264;BME280;45030;42.720;23.344;2023-12-14T10:48:00;94481.88;;;10.91;91.65
59264;BME280;45030;42.720;23.344;2023-12-14T10:50:28;94484.31;;;11.13;91.37
59264;BME280;45030;42.720;23.344;2023-12-14T10:52:54;94474.59;;;10.73;94.77
59264;BME280;45030;42.720;23.344;2023-12-14T10:55:27;94498.44;;;10.45;100.00
59264;BME280;45030;42.720;23.344;2023-12-14T10:57:53;94508.78;;;9.98;100.00
59264;BME280;45030;42.720;23.344;2023-12-14T11:00:18;94498.19;;;9.85;100.00
59264;BME280;45030;42.720;23.344;2023-12-14T11:02:47;94508.88;;;9.77;100.00
59264;BME280;45030;42.720;23.344;2023-12-14T11:05:15;94517.56;;;9.77;100.00
59264;BME280;45030;42.720;23.344;2023-12-14T11:08:09;94499.28;;;9.62;100.00
59264;BME280;45030;42.720;23.344;2023-12-14T11:10:39;94527.91;;;9.50;100.00
59264;BME280;45030;42.720;23.344;2023-12-14T11:13:07;94514.31;;;9.40;100.00
59264;BME280;45030;42.720;23.344;2023-12-14T11:15:36;94519.25;;;9.22;100.00
59264;BME280;45030;42.720;23.344;2023-12-14T11:25:39;94519.53;;;8.62;100.00
59264;BME280;45030;42.720;23.344;2023-12-14T11:28:06;94517.19;;;8.67;100.00
59264;BME280;45030;42.720;23.344;2023-12-14T11:30:33;94538.41;;;8.73;100.00
59264;BME280;45030;42.720;23.344;2023-12-14T11:32:59;94530.78;;;8.56;100.00
59264;BME280;45030;42.720;23.344;2023-12-14T11:35:24;94538.41;;;8.36;100.00
59264;BME280;45030;42.720;23.344;2023-12-14T11:37:49;94535.63;;;8.23;100.00
59264;BME280;45030;42.720;23.344;2023-12-14T11:40:15;94552.03;;;8.10;100.00
59264;BME280;45030;42.720;23.344;2023-12-14T11:42:59;94546.16;;;8.08;100.00
59264;BME280;45030;42.720;23.344;2023-12-14T11:45:25;94556.19;;;8.04;100.00
59264;BME280;45030;42.720;23.344;2023-12-14T11:47:51;94545.53;;;7.91;100.00
59264;BME280;45030;42.720;23.344;2023-12-14T11:50:17;94554.47;;;7.97;100.00
59264;BME280;45030;42.720;23.344;2023-12-14T11:52:43;94576.41;;;7.96;100.00
59264;BME280;45030;42.720;23.344;2023-12-14T11:55:12;94579.66;;;7.98;100.00
59264;BME280;45030;42.720;23.344;2023-12-14T11:57:37;94587.72;;;7.96;100.00
59264;BME280;45030;42.720;23.344;2023-12-14T12:00:04;94586.63;;;7.76;100.00
59264;BME280;45030;42.720;23.344;2023-12-14T12:02:30;94583.50;;;7.80;100.00
59264;BME280;45030;42.720;23.344;2023-12-14T12:04:55;94591.22;;;7.73;100.00
59264;BME280;45030;42.720;23.344;2023-12-14T12:07:22;94580.69;;;7.67;100.00
59264;BME280;45030;42.720;23.344;2023-12-14T12:09:48;94596.28;;;7.75;100.00
59264;BME280;45030;42.720;23.344;2023-12-14T12:12:13;94606.22;;;7.65;100.00
59264;BME280;45030;42.720;23.344;2023-12-14T12:14:40;94600.63;;;7.68;100.00
59264;BME280;45030;42.720;23.344;2023-12-14T12:17:06;94600.69;;;7.60;100.00
59264;BME280;45030;42.720;23.344;2023-12-14T12:19:35;94606.03;;;7.51;100.00
59264;BME280;45030;42.720;23.344;2023-12-14T12:22:02;94590.03;;;7.31;100.00
59264;BME280;45030;42.720;23.344;2023-12-14T12:24:28;94599.88;;;7.44;100.00
59264;BME280;45030;42.720;23.344;2023-12-14T12:26:54;94609.69;;;7.42;100.00
59264;BME280;45030;42.720;23.344;2023-12-14T12:29:20;94603.81;;;7.40;100.00
59264;BME280;45030;42.720;23.344;2023-12-14T12:31:45;94590.91;;;7.39;100.00
59264;BME280;45030;42.720;23.344;2023-12-14T12:34:11;94612.84;;;7.38;100.00
59264;BME280;45030;42.720;23.344;2023-12-14T12:36:37;94586.13;;;7.27;100.00
59264;BME280;45030;42.720;23.344;2023-12-14T12:39:03;94599.59;;;7.39;100.00
59264;BME280;45030;42.720;23.344;2023-12-14T12:41:34;94593.38;;;7.40;100.00
59264;BME280;45030;42.720;23.344;2023-12-14T12:44:03;94613.28;;;7.26;100.00
59264;BME280;45030;42.720;23.344;2023-12-14T12:46:34;94601.06;;;7.19;100.00
59264;BME280;45030;42.720;23.344;2023-12-14T12:49:01;94610.31;;;7.29;100.00
59264;BME280;45030;42.720;23.344;2023-12-14T12:51:26;94601.47;;;7.07;100.00
59264;BME280;45030;42.720;23.344;2023-12-14T12:53:53;94609.78;;;7.11;100.00